Time;durP1;ratioP1;P1;durP2;ratioP2;P2;SDS_P1;SDS_P2;PMS_P1;PMS_P2;Temp;Humidity;BMP_temperature;BMP_pressure;BME280_temperature;BME280_humidity;BME280_pressure;Samples;Min_cycle;Max_cycle;Signal;HPM_P1;HPM_P2
2022/04/30 00:02:15;;;;;;;19.95;10.07;;;5.10;99.90;;;;;;4991918;28;20080;-80
2022/04/30 00:04:45;;;;;;;21.65;10.77;;;5.00;99.90;;;;;;5028076;28;20053;-82
2022/04/30 00:07:18;;;;;;;18.25;10.75;;;5.00;99.90;;;;;;5028077;28;20072;-81
2022/04/30 00:09:45;;;;;;;18.10;9.90;;;5.10;99.90;;;;;;5013801;28;20076;-82
2022/04/30 00:12:12;;;;;;;18.92;10.00;;;4.90;99.90;;;;;;4991197;28;20440;-80
2022/04/30 00:14:38;;;;;;;17.38;10.77;;;5.00;99.90;;;;;;4979547;28;20104;-80
2022/04/30 00:17:04;;;;;;;19.83;11.25;;;4.90;99.90;;;;;;4995245;28;20497;-80
2022/04/30 00:19:30;;;;;;;20.55;10.38;;;4.90;99.90;;;;;;4994478;28;20057;-80
2022/04/30 00:21:57;;;;;;;22.48;11.57;;;4.90;99.90;;;;;;4995449;28;20386;-81
2022/04/30 00:24:26;;;;;;;23.63;12.32;;;4.90;99.90;;;;;;4994295;28;20080;-79
2022/04/30 00:26:53;;;;;;;19.55;11.52;;;4.90;99.90;;;;;;5025208;28;20116;-79
2022/04/30 00:29:18;;;;;;;23.05;10.73;;;4.90;99.90;;;;;;5003725;28;20085;-79
2022/04/30 00:31:45;;;;;;;18.30;11.20;;;4.90;99.90;;;;;;4994689;28;20085;-80
2022/04/30 00:34:10;;;;;;;19.73;10.23;;;4.90;99.90;;;;;;4978492;28;20045;-82
2022/04/30 00:36:37;;;;;;;20.60;11.13;;;4.90;99.90;;;;;;5011076;28;20057;-79
2022/04/30 00:39:04;;;;;;;21.70;11.30;;;4.80;99.90;;;;;;4995237;28;20042;-79
2022/04/30 00:41:32;;;;;;;17.27;10.50;;;4.90;99.90;;;;;;4979156;28;20441;-79
2022/04/30 00:43:59;;;;;;;23.73;11.77;;;4.90;99.90;;;;;;5025194;28;20050;-81
2022/04/30 00:46:25;;;;;;;24.20;12.55;;;4.90;99.90;;;;;;4995356;28;20061;-79
2022/04/30 00:48:53;;;;;;;16.80;11.27;;;4.90;99.90;;;;;;4992681;28;20081;-81
2022/04/30 00:51:20;;;;;;;21.27;10.63;;;4.90;99.90;;;;;;4994104;28;20045;-80
2022/04/30 00:53:48;;;;;;;21.92;11.30;;;5.00;99.90;;;;;;5028578;28;20245;-80
2022/04/30 00:56:17;;;;;;;19.88;10.45;;;5.00;99.90;;;;;;4995055;28;20752;-80
2022/04/30 00:58:47;;;;;;;16.70;10.52;;;5.00;99.90;;;;;;5011107;28;20042;-79
2022/04/30 01:01:14;;;;;;;22.67;10.95;;;4.90;99.90;;;;;;4994592;28;20085;-80
2022/04/30 01:03:40;;;;;;;23.10;10.75;;;5.00;99.90;;;;;;5020716;28;20046;-80
2022/04/30 01:06:07;;;;;;;17.55;10.35;;;5.00;99.90;;;;;;5009492;28;20080;-79
2022/04/30 01:08:33;;;;;;;21.42;11.07;;;5.00;99.90;;;;;;5010673;28;20465;-80
2022/04/30 01:11:03;;;;;;;21.52;10.00;;;5.00;99.90;;;;;;4977337;28;20133;-83
2022/04/30 01:13:35;;;;;;;19.98;10.63;;;5.00;99.90;;;;;;4985254;28;20518;-79
2022/04/30 01:16:02;;;;;;;17.67;9.77;;;5.00;99.90;;;;;;5027119;28;20038;-79
2022/04/30 01:18:29;;;;;;;20.83;10.55;;;5.00;99.90;;;;;;4972592;28;20088;-80
2022/04/30 01:21:03;;;;;;;18.05;9.77;;;5.00;99.90;;;;;;4995172;28;20049;-79
2022/04/30 01:23:32;;;;;;;21.85;10.52;;;5.10;99.90;;;;;;5009991;28;20172;-80
2022/04/30 01:25:59;;;;;;;15.23;9.48;;;5.10;99.90;;;;;;5023000;28;20046;-80
2022/04/30 01:28:25;;;;;;;18.63;10.18;;;5.10;99.90;;;;;;4976612;28;20042;-80
2022/04/30 01:30:51;;;;;;;18.33;9.82;;;5.10;99.90;;;;;;4975586;28;20043;-80
2022/04/30 01:38:45;;;;;;;15.30;9.82;;;5.10;99.90;;;;;;4991191;28;20125;-83
2022/04/30 01:41:11;;;;;;;14.00;10.38;;;5.10;99.90;;;;;;4977923;28;20053;-79
2022/04/30 01:43:37;;;;;;;13.77;9.38;;;5.00;99.90;;;;;;5027091;28;20042;-79
2022/04/30 01:46:04;;;;;;;15.93;8.88;;;5.00;99.90;;;;;;5010182;28;20050;-85
2022/04/30 01:48:30;;;;;;;17.70;9.40;;;5.10;99.90;;;;;;4985844;28;20136;-80
2022/04/30 01:50:56;;;;;;;21.00;10.10;;;5.00;99.90;;;;;;4974917;28;20042;-80
2022/04/30 01:53:22;;;;;;;21.65;9.20;;;5.10;99.90;;;;;;5009562;28;20131;-81
2022/04/30 01:55:47;;;;;;;21.05;9.48;;;5.00;99.90;;;;;;4958735;28;20065;-79
2022/04/30 01:58:13;;;;;;;18.63;10.60;;;5.00;99.90;;;;;;4970024;28;20739;-79
2022/04/30 02:00:39;;;;;;;18.00;9.70;;;5.10;99.90;;;;;;4993806;28;20054;-79
2022/04/30 02:03:08;;;;;;;19.90;9.73;;;5.00;99.90;;;;;;4968466;28;20489;-80
2022/04/30 02:05:35;;;;;;;12.48;8.63;;;5.00;99.90;;;;;;5024329;28;20092;-80
2022/04/30 02:08:12;;;;;;;18.70;9.45;;;5.00;99.90;;;;;;4993502;28;20123;-80
2022/04/30 02:10:40;;;;;;;15.65;8.50;;;5.00;99.90;;;;;;4993952;28;20042;-81
2022/04/30 02:13:08;;;;;;;17.58;8.90;;;5.00;99.90;;;;;;5025384;28;20050;-80
2022/04/30 02:15:35;;;;;;;16.52;10.00;;;5.00;99.90;;;;;;5011000;28;20132;-80
2022/04/30 02:18:03;;;;;;;15.23;8.50;;;5.00;99.90;;;;;;4990644;28;20553;-80
2022/04/30 02:20:31;;;;;;;16.27;8.80;;;5.00;99.90;;;;;;4992152;28;20133;-80
2022/04/30 02:23:02;;;;;;;15.93;8.80;;;5.00;99.90;;;;;;4993178;28;20054;-80
2022/04/30 02:25:28;;;;;;;16.38;9.77;;;5.10;99.90;;;;;;4989734;28;20100;-80
2022/04/30 02:27:58;;;;;;;13.23;8.32;;;5.00;99.90;;;;;;4992484;28;20049;-80
2022/04/30 02:30:26;;;;;;;19.40;9.07;;;5.00;99.90;;;;;;4991901;28;20047;-79
2022/04/30 02:32:58;;;;;;;15.85;9.13;;;5.10;99.90;;;;;;4991884;28;20097;-80
2022/04/30 02:35:29;;;;;;;16.42;9.38;;;5.00;99.90;;;;;;5009271;28;20045;-79
2022/04/30 02:37:58;;;;;;;19.98;9.90;;;5.00;99.90;;;;;;4993461;28;20046;-80
2022/04/30 02:40:25;;;;;;;19.63;9.35;;;5.10;99.90;;;;;;4992386;28;20049;-80
2022/04/30 02:42:52;;;;;;;18.98;9.48;;;5.00;99.90;;;;;;5008498;28;20493;-80
2022/04/30 02:45:19;;;;;;;20.30;9.80;;;5.00;99.90;;;;;;5025697;28;20042;-79
2022/04/30 02:47:46;;;;;;;15.00;9.48;;;5.10;99.90;;;;;;5010314;28;20140;-80
2022/04/30 02:50:13;;;;;;;18.50;9.63;;;5.00;99.90;;;;;;5020581;28;20049;-80
2022/04/30 02:52:43;;;;;;;17.08;9.05;;;5.10;99.90;;;;;;4988887;28;20060;-80
2022/04/30 02:55:11;;;;;;;19.20;9.90;;;5.00;99.90;;;;;;4994909;28;20050;-81
2022/04/30 03:00:39;;;;;;;20.65;10.15;;;5.00;99.90;;;;;;4994395;28;20416;-80
2022/04/30 03:03:09;;;;;;;18.65;9.63;;;5.00;99.90;;;;;;4991760;28;20050;-81
2022/04/30 03:05:35;;;;;;;19.13;10.52;;;5.00;99.90;;;;;;4961491;28;20054;-81
2022/04/30 03:08:06;;;;;;;13.80;8.95;;;5.00;99.90;;;;;;4992708;28;20081;-82
2022/04/30 03:10:32;;;;;;;24.33;10.85;;;5.00;99.90;;;;;;4977835;28;20050;-81
2022/04/30 03:12:58;;;;;;;16.73;9.73;;;4.90;99.90;;;;;;4992603;28;20054;-80
2022/04/30 03:15:27;;;;;;;15.40;9.35;;;4.90;99.90;;;;;;4990981;28;20436;-81
2022/04/30 03:23:21;;;;;;;15.43;9.90;;;4.70;99.90;;;;;;5009599;28;20504;-79
2022/04/30 03:25:47;;;;;;;15.85;9.38;;;4.70;99.90;;;;;;4993235;28;20092;-80
2022/04/30 03:28:13;;;;;;;17.67;9.32;;;4.60;99.90;;;;;;4973119;28;20039;-80
2022/04/30 03:30:38;;;;;;;19.42;9.55;;;4.60;99.90;;;;;;5002638;28;20085;-79
2022/04/30 03:33:08;;;;;;;16.50;9.52;;;4.60;99.90;;;;;;4990849;28;20046;-79
2022/04/30 03:35:37;;;;;;;17.23;8.77;;;4.60;99.90;;;;;;4976126;28;20046;-80
2022/04/30 03:38:02;;;;;;;17.00;10.00;;;4.60;99.90;;;;;;4992347;28;20052;-80
2022/04/30 03:40:28;;;;;;;17.05;10.23;;;4.60;99.90;;;;;;4992810;28;20049;-82
2022/04/30 03:42:54;;;;;;;19.38;10.23;;;4.60;99.90;;;;;;5021995;28;20165;-80
2022/04/30 03:45:20;;;;;;;15.82;9.90;;;4.60;99.90;;;;;;5022253;28;20047;-79
2022/04/30 03:47:46;;;;;;;17.27;9.95;;;4.50;99.90;;;;;;4988990;28;20046;-79
2022/04/30 03:50:11;;;;;;;18.40;10.02;;;4.50;99.90;;;;;;5008936;28;20042;-83
2022/04/30 03:52:38;;;;;;;18.15;10.10;;;4.50;99.90;;;;;;4976084;28;20482;-79
2022/04/30 03:55:04;;;;;;;17.15;9.90;;;4.50;99.90;;;;;;4991066;28;20433;-80
2022/04/30 03:57:31;;;;;;;16.98;10.02;;;4.50;99.90;;;;;;4967074;28;20922;-80
2022/04/30 03:59:56;;;;;;;19.00;10.23;;;4.50;99.90;;;;;;5009179;28;20085;-80
2022/04/30 04:02:23;;;;;;;17.83;10.57;;;4.50;99.90;;;;;;4992386;28;20045;-83
2022/04/30 04:04:52;;;;;;;18.88;10.88;;;4.60;99.90;;;;;;4988858;28;20046;-79
2022/04/30 04:07:18;;;;;;;21.42;10.60;;;4.50;99.90;;;;;;4982570;28;20117;-79
2022/04/30 04:09:44;;;;;;;17.52;10.27;;;4.50;99.90;;;;;;4975834;28;20152;-80
2022/04/30 04:12:10;;;;;;;19.38;11.07;;;4.50;99.90;;;;;;4972965;28;20070;-80
2022/04/30 04:17:38;;;;;;;14.85;8.93;;;4.60;99.90;;;;;;5010284;28;20053;-81
2022/04/30 04:20:09;;;;;;;18.77;10.52;;;4.50;99.90;;;;;;4969052;28;20493;-80
2022/04/30 04:22:35;;;;;;;15.30;10.05;;;4.60;99.90;;;;;;4980320;28;20092;-79
2022/04/30 04:27:53;;;;;;;15.18;8.38;;;4.50;99.90;;;;;;4990827;28;20088;-83
2022/04/30 04:30:28;;;;;;;13.60;8.18;;;4.60;99.90;;;;;;5006222;28;20053;-80
2022/04/30 04:32:55;;;;;;;13.95;8.38;;;4.60;99.90;;;;;;5011098;28;20053;-79
2022/04/30 04:35:21;;;;;;;14.85;9.52;;;4.60;99.90;;;;;;5023371;28;20038;-78
2022/04/30 04:37:47;;;;;;;18.63;9.73;;;4.60;99.90;;;;;;5008145;28;20046;-79
2022/04/30 04:40:14;;;;;;;15.93;10.18;;;4.60;99.90;;;;;;4991868;28;20053;-79
2022/04/30 04:42:41;;;;;;;13.82;8.98;;;4.60;99.90;;;;;;5024295;28;20501;-79
2022/04/30 04:45:08;;;;;;;15.27;9.30;;;4.60;99.90;;;;;;4992677;28;20459;-79
2022/04/30 04:47:40;;;;;;;15.82;9.77;;;4.60;99.90;;;;;;5007399;28;20251;-79
2022/04/30 04:50:12;;;;;;;15.40;9.43;;;4.70;99.90;;;;;;5011107;28;20048;-79
2022/04/30 04:52:39;;;;;;;18.70;9.60;;;4.70;99.90;;;;;;4993896;28;20132;-79
2022/04/30 04:55:05;;;;;;;21.00;10.32;;;4.80;99.90;;;;;;4976284;28;20057;-79
2022/04/30 04:57:31;;;;;;;17.45;9.73;;;4.80;99.90;;;;;;4986765;28;20409;-79
2022/04/30 04:59:57;;;;;;;17.02;9.77;;;4.90;99.90;;;;;;4994802;28;20076;-79
2022/04/30 05:02:23;;;;;;;20.20;9.40;;;4.90;99.90;;;;;;4978924;28;20046;-80
2022/04/30 05:04:48;;;;;;;13.85;8.95;;;5.00;99.90;;;;;;4995318;28;20108;-79
2022/04/30 05:07:14;;;;;;;17.58;10.55;;;4.90;99.90;;;;;;4978718;28;20045;-79
2022/04/30 05:09:40;;;;;;;18.25;10.02;;;5.00;99.90;;;;;;5009464;28;20046;-80
2022/04/30 05:12:07;;;;;;;20.75;10.10;;;5.10;99.90;;;;;;4999415;28;20077;-79
2022/04/30 05:14:34;;;;;;;15.20;9.40;;;5.20;99.90;;;;;;4977160;28;20531;-80
2022/04/30 05:17:06;;;;;;;18.98;10.27;;;5.30;99.90;;;;;;4992650;28;20408;-82
2022/04/30 05:19:32;;;;;;;14.75;9.75;;;5.40;99.90;;;;;;5012458;28;20050;-79
2022/04/30 05:21:58;;;;;;;16.60;9.98;;;5.40;99.90;;;;;;4984603;28;20492;-79
2022/04/30 05:24:23;;;;;;;16.25;9.52;;;5.60;99.90;;;;;;4978080;28;20061;-78
2022/04/30 05:26:49;;;;;;;16.45;9.55;;;5.60;99.90;;;;;;4973455;28;20057;-80
2022/04/30 05:29:15;;;;;;;14.23;9.40;;;5.80;99.90;;;;;;4977332;28;20053;-79
2022/04/30 05:31:41;;;;;;;15.00;9.10;;;5.90;99.90;;;;;;4994087;28;20084;-79
2022/04/30 05:34:07;;;;;;;15.85;9.85;;;5.90;99.90;;;;;;4979201;28;20053;-79
2022/04/30 05:36:33;;;;;;;15.50;9.68;;;6.20;99.90;;;;;;5027592;28;20628;-80
2022/04/30 05:38:59;;;;;;;16.15;9.60;;;6.40;99.90;;;;;;4990319;28;20045;-80
2022/04/30 05:41:28;;;;;;;15.60;9.73;;;6.50;99.90;;;;;;4964716;28;20101;-80
2022/04/30 05:43:55;;;;;;;16.70;10.00;;;6.60;99.90;;;;;;4990678;28;20042;-80
2022/04/30 05:46:21;;;;;;;15.15;10.30;;;6.80;99.90;;;;;;4975101;28;20054;-84
2022/04/30 05:48:46;;;;;;;16.73;9.95;;;6.90;99.90;;;;;;4994099;28;20512;-80
2022/04/30 05:51:12;;;;;;;13.68;9.77;;;7.00;99.90;;;;;;5027040;28;20103;-81
2022/04/30 05:53:38;;;;;;;15.52;9.07;;;7.20;99.90;;;;;;4959548;28;20042;-79
2022/04/30 05:56:04;;;;;;;12.20;9.43;;;7.20;99.90;;;;;;4977800;28;20141;-81
2022/04/30 05:58:30;;;;;;;13.38;9.30;;;7.30;99.90;;;;;;5010371;28;20417;-80
2022/04/30 06:00:56;;;;;;;19.10;9.60;;;7.60;99.90;;;;;;4977423;28;20053;-81
2022/04/30 06:03:22;;;;;;;14.05;8.60;;;7.60;99.90;;;;;;5010792;28;20046;-84
2022/04/30 06:05:48;;;;;;;16.10;9.60;;;7.70;99.90;;;;;;5010726;28;20042;-79
2022/04/30 06:08:13;;;;;;;23.17;14.15;;;7.80;99.90;;;;;;5027540;28;20591;-81
2022/04/30 06:10:39;;;;;;;15.02;11.00;;;7.90;99.90;;;;;;4993927;28;20107;-80
2022/04/30 06:13:05;;;;;;;13.50;9.63;;;8.00;99.90;;;;;;5005588;28;20065;-79
2022/04/30 06:15:31;;;;;;;15.70;10.20;;;8.10;99.90;;;;;;4993729;28;20058;-80
2022/04/30 06:17:57;;;;;;;12.93;9.38;;;8.20;99.90;;;;;;4994155;28;20088;-80
2022/04/30 06:20:22;;;;;;;14.20;9.05;;;8.30;99.90;;;;;;4978238;28;20054;-83
2022/04/30 06:22:48;;;;;;;13.98;9.05;;;8.40;99.90;;;;;;5009893;28;20204;-80
2022/04/30 06:25:14;;;;;;;14.85;9.13;;;8.40;99.90;;;;;;4962290;28;20050;-81
2022/04/30 06:27:40;;;;;;;13.38;8.45;;;8.60;99.90;;;;;;5009661;28;20049;-80
2022/04/30 06:30:08;;;;;;;14.85;11.07;;;8.60;99.90;;;;;;4977952;28;20049;-80
2022/04/30 06:32:34;;;;;;;15.20;10.32;;;8.60;99.90;;;;;;4977291;28;20046;-81
2022/04/30 06:35:00;;;;;;;14.15;10.07;;;8.70;99.90;;;;;;4994001;28;20145;-81
2022/04/30 06:37:26;;;;;;;14.68;8.68;;;8.80;99.90;;;;;;4975698;28;20128;-82
2022/04/30 06:39:52;;;;;;;15.70;9.43;;;8.80;99.90;;;;;;4991937;28;20120;-81
2022/04/30 06:42:18;;;;;;;12.10;8.30;;;8.80;99.90;;;;;;4996198;28;20567;-81
2022/04/30 06:44:43;;;;;;;14.60;8.32;;;8.80;99.90;;;;;;4970272;28;20902;-82
2022/04/30 06:47:09;;;;;;;15.25;7.80;;;8.90;99.90;;;;;;4971548;28;20065;-80
2022/04/30 06:49:35;;;;;;;14.65;9.00;;;9.00;99.90;;;;;;4962362;28;20070;-79
2022/04/30 06:52:01;;;;;;;12.73;8.32;;;9.00;99.90;;;;;;4976374;28;20053;-78
2022/04/30 06:57:11;;;;;;;11.98;8.85;;;9.10;99.90;;;;;;4994670;28;20049;-78
2022/04/30 06:59:40;;;;;;;11.65;8.18;;;9.10;99.90;;;;;;4990780;28;20046;-79
2022/04/30 07:02:11;;;;;;;13.20;9.05;;;9.00;99.90;;;;;;4975057;28;20037;-78
2022/04/30 07:04:38;;;;;;;16.58;8.93;;;9.00;99.90;;;;;;4992252;28;20050;-78
2022/04/30 07:07:04;;;;;;;16.58;8.88;;;9.00;99.90;;;;;;4993464;28;20058;-79
2022/04/30 07:09:33;;;;;;;13.27;9.60;;;9.10;99.90;;;;;;4976712;28;20046;-78
2022/04/30 07:12:05;;;;;;;13.20;8.68;;;9.10;99.90;;;;;;4992890;28;20159;-77
2022/04/30 07:14:36;;;;;;;14.93;9.80;;;9.20;99.90;;;;;;5009115;28;20053;-79
2022/04/30 07:17:12;;;;;;;14.40;9.60;;;9.20;99.90;;;;;;4993483;28;20061;-78
2022/04/30 07:19:39;;;;;;;15.18;9.40;;;9.40;99.90;;;;;;5025901;28;20050;-78
2022/04/30 07:22:07;;;;;;;13.27;8.80;;;9.40;99.90;;;;;;4977124;28;20073;-79
2022/04/30 07:24:33;;;;;;;12.80;9.30;;;9.60;99.90;;;;;;5025109;28;20491;-79
2022/04/30 07:27:00;;;;;;;13.90;9.18;;;9.80;99.90;;;;;;5025621;28;20151;-79
2022/04/30 07:29:26;;;;;;;17.52;10.00;;;9.90;99.90;;;;;;4992152;28;20053;-78
2022/04/30 07:31:52;;;;;;;15.05;8.60;;;10.00;99.90;;;;;;5008777;28;20042;-78
2022/04/30 07:34:18;;;;;;;11.77;8.57;;;10.10;99.90;;;;;;5010876;28;20132;-78
2022/04/30 07:36:44;;;;;;;14.48;8.98;;;10.20;99.90;;;;;;4977799;28;20536;-83
2022/04/30 07:39:10;;;;;;;15.00;9.10;;;10.30;99.90;;;;;;4967370;28;20623;-81
2022/04/30 07:41:35;;;;;;;13.90;8.27;;;10.50;99.90;;;;;;4979783;28;20042;-80
2022/04/30 07:44:01;;;;;;;13.40;7.53;;;10.70;99.90;;;;;;4960230;28;20084;-78
2022/04/30 07:46:27;;;;;;;11.40;8.25;;;10.90;99.90;;;;;;5003474;28;20123;-81
2022/04/30 07:48:53;;;;;;;12.23;8.32;;;11.10;99.90;;;;;;4986368;28;20065;-76
2022/04/30 07:51:33;;;;;;;12.30;7.55;;;11.20;99.90;;;;;;4993290;28;20049;-77
2022/04/30 07:54:02;;;;;;;9.90;7.32;;;11.30;99.90;;;;;;4977099;28;20137;-80
2022/04/30 07:56:28;;;;;;;13.00;7.15;;;11.50;99.90;;;;;;5008806;28;20116;-78
2022/04/30 07:58:54;;;;;;;12.75;6.05;;;11.80;99.90;;;;;;4981083;28;20042;-78
2022/04/30 08:01:20;;;;;;;9.85;5.32;;;12.00;99.90;;;;;;4979325;28;20049;-78
2022/04/30 08:03:45;;;;;;;9.13;5.68;;;12.20;99.90;;;;;;4988314;28;20088;-79
2022/04/30 08:06:11;;;;;;;13.98;6.43;;;12.40;99.90;;;;;;4963595;28;20066;-77
2022/04/30 08:08:37;;;;;;;13.68;6.88;;;12.50;99.90;;;;;;4985263;28;20112;-77
2022/04/30 08:11:03;;;;;;;11.57;6.68;;;12.40;99.90;;;;;;4985737;28;20050;-78
2022/04/30 08:13:28;;;;;;;12.25;7.25;;;12.40;99.90;;;;;;5002623;28;20492;-79
2022/04/30 08:15:54;;;;;;;13.07;6.90;;;12.40;99.90;;;;;;4983554;28;20041;-78
2022/04/30 08:18:20;;;;;;;10.27;6.65;;;12.60;99.90;;;;;;4971409;28;20092;-80
2022/04/30 08:20:46;;;;;;;9.93;5.75;;;12.70;99.90;;;;;;4973866;28;20144;-81
2022/04/30 08:23:12;;;;;;;9.90;4.97;;;12.90;99.90;;;;;;4977876;28;20438;-79
2022/04/30 08:25:39;;;;;;;10.18;6.05;;;13.10;99.90;;;;;;4988122;28;20045;-77
2022/04/30 08:28:06;;;;;;;8.55;6.55;;;13.20;99.90;;;;;;4999570;28;20147;-80
2022/04/30 08:30:32;;;;;;;11.30;5.90;;;13.30;99.90;;;;;;5018265;28;20046;-78
2022/04/30 08:32:58;;;;;;;8.35;5.57;;;13.30;99.90;;;;;;4972442;28;20053;-79
2022/04/30 08:35:25;;;;;;;9.38;5.30;;;13.40;99.90;;;;;;4984829;28;20746;-83
2022/04/30 08:37:51;;;;;;;11.02;5.68;;;13.70;99.90;;;;;;4974450;28;20550;-81
2022/04/30 08:40:17;;;;;;;11.10;5.60;;;14.10;99.90;;;;;;4989927;28;20045;-79
2022/04/30 08:42:43;;;;;;;12.30;5.32;;;14.40;99.80;;;;;;4994567;28;20049;-80
2022/04/30 08:45:09;;;;;;;7.63;5.18;;;14.70;96.40;;;;;;4980501;28;20042;-80
2022/04/30 08:47:47;;;;;;;7.60;5.15;;;15.00;95.80;;;;;;4978502;28;20056;-83
2022/04/30 08:50:14;;;;;;;9.20;5.53;;;15.00;91.80;;;;;;4992676;28;20443;-79
2022/04/30 08:52:40;;;;;;;9.20;5.22;;;14.90;91.40;;;;;;4969255;28;20046;-79
2022/04/30 08:55:10;;;;;;;7.63;4.85;;;14.70;90.60;;;;;;4983126;28;20821;-83
2022/04/30 08:57:35;;;;;;;6.07;4.97;;;14.40;90.30;;;;;;4993546;28;20053;-85
2022/04/30 09:00:04;;;;;;;6.70;4.50;;;14.30;91.40;;;;;;5015865;28;20049;-81
2022/04/30 09:02:30;;;;;;;8.43;4.85;;;14.20;91.10;;;;;;4996521;28;21670;-85
2022/04/30 09:04:56;;;;;;;6.60;4.20;;;14.10;90.70;;;;;;4994193;28;20042;-84
2022/04/30 09:07:24;;;;;;;8.38;4.68;;;14.00;91.50;;;;;;4998721;28;20183;-82
2022/04/30 09:09:57;;;;;;;9.90;5.05;;;14.10;91.10;;;;;;4980687;28;21011;-81
2022/04/30 09:12:24;;;;;;;7.55;4.45;;;14.20;89.10;;;;;;4973658;28;20152;-79
2022/04/30 09:14:50;;;;;;;8.68;4.45;;;14.10;90.30;;;;;;4976486;28;20062;-78
2022/04/30 09:17:17;;;;;;;7.85;3.72;;;14.10;91.50;;;;;;4976389;28;20050;-79
2022/04/30 09:19:52;;;;;;;6.90;3.28;;;14.10;88.30;;;;;;4993879;28;20037;-79
2022/04/30 09:22:29;;;;;;;5.43;4.15;;;14.20;86.50;;;;;;5008031;28;20076;-78
2022/04/30 09:24:56;;;;;;;5.88;4.03;;;14.30;82.10;;;;;;4957068;28;20056;-81
2022/04/30 09:27:21;;;;;;;4.50;3.40;;;14.30;85.30;;;;;;4952346;28;20516;-81
2022/04/30 09:29:47;;;;;;;7.38;4.35;;;14.20;85.70;;;;;;4989201;28;20136;-81
2022/04/30 09:32:17;;;;;;;8.15;4.22;;;14.20;83.60;;;;;;4959838;28;20056;-79
2022/04/30 09:37:41;;;;;;;6.22;4.47;;;14.40;83.50;;;;;;4978401;28;20505;-77
2022/04/30 09:40:13;;;;;;;8.05;4.25;;;14.60;81.90;;;;;;4974375;28;20077;-79
2022/04/30 09:42:43;;;;;;;7.10;3.85;;;14.90;79.80;;;;;;4972270;28;20054;-81
2022/04/30 09:45:31;;;;;;;11.00;5.25;;;15.40;79.20;;;;;;4993979;28;20046;-78
2022/04/30 09:48:00;;;;;;;7.50;3.95;;;16.40;69.50;;;;;;4975539;28;20492;-79
2022/04/30 09:56:05;;;;;;;5.70;3.42;;;18.60;60.80;;;;;;4977235;28;20050;-80
2022/04/30 09:58:35;;;;;;;6.45;3.50;;;18.80;59.30;;;;;;4988365;28;20068;-81
2022/04/30 10:01:01;;;;;;;11.60;4.05;;;18.50;59.20;;;;;;4977749;28;20126;-82
2022/04/30 10:03:29;;;;;;;47.35;5.30;;;17.90;59.10;;;;;;4960803;28;20485;-77
2022/04/30 10:06:00;;;;;;;6.18;4.07;;;17.20;59.60;;;;;;4994481;28;20057;-81
2022/04/30 10:08:28;;;;;;;7.30;3.70;;;16.70;60.20;;;;;;5004841;28;20089;-81
2022/04/30 10:11:09;;;;;;;7.25;3.60;;;16.20;62.30;;;;;;4974152;28;20074;-78
2022/04/30 10:14:06;;;;;;;5.00;3.55;;;15.80;61.60;;;;;;4989708;28;20933;-78
2022/04/30 10:16:32;;;;;;;6.88;3.78;;;15.60;60.10;;;;;;4979133;28;20146;-81
2022/04/30 10:18:59;;;;;;;4.07;2.95;;;15.30;63.70;;;;;;4971095;28;20481;-80
2022/04/30 10:21:25;;;;;;;6.70;3.67;;;15.20;64.10;;;;;;4972873;28;20054;-83
2022/04/30 10:24:00;;;;;;;16.27;3.35;;;15.30;64.40;;;;;;4958424;28;20753;-83
2022/04/30 10:26:26;;;;;;;8.13;3.37;;;15.30;62.70;;;;;;4969697;28;20896;-82
2022/04/30 10:29:18;;;;;;;12.43;3.67;;;15.30;62.80;;;;;;4987645;28;20336;-85
2022/04/30 10:31:47;;;;;;;5.50;3.33;;;15.30;64.30;;;;;;4983300;28;20057;-86
2022/04/30 10:34:12;;;;;;;12.85;3.70;;;15.20;63.80;;;;;;4968341;28;20104;-82
2022/04/30 10:36:39;;;;;;;8.52;3.90;;;15.30;64.10;;;;;;4967672;28;20045;-81
2022/04/30 10:39:12;;;;;;;5.25;3.72;;;15.30;64.80;;;;;;4983281;28;20069;-88
2022/04/30 10:41:42;;;;;;;10.18;4.40;;;15.20;65.80;;;;;;5010119;28;20442;-82
2022/04/30 10:44:08;;;;;;;8.50;4.25;;;15.00;67.00;;;;;;4987203;28;20045;-86
2022/04/30 10:46:39;;;;;;;6.80;4.18;;;14.70;68.90;;;;;;4988599;28;20125;-82
2022/04/30 10:49:06;;;;;;;7.82;4.50;;;14.40;70.30;;;;;;5002140;28;20073;-80
2022/04/30 10:51:36;;;;;;;8.23;4.30;;;14.20;72.50;;;;;;4983666;28;20054;-81
2022/04/30 10:54:07;;;;;;;6.90;4.68;;;14.00;74.70;;;;;;5001732;28;20088;-85
2022/04/30 10:56:33;;;;;;;10.45;4.45;;;14.00;77.60;;;;;;5001227;28;20038;-81
2022/04/30 10:58:59;;;;;;;8.23;4.63;;;14.00;77.60;;;;;;4992766;28;20455;-81
2022/04/30 11:01:24;;;;;;;8.13;4.80;;;14.00;77.60;;;;;;5007013;28;20045;-84
2022/04/30 11:03:51;;;;;;;7.72;5.00;;;14.10;77.20;;;;;;4971270;28;20072;-84
2022/04/30 11:06:24;;;;;;;9.93;4.80;;;14.20;77.10;;;;;;4993215;28;20192;-83
2022/04/30 11:09:07;;;;;;;8.70;5.32;;;14.30;75.90;;;;;;5010695;28;20049;-82
2022/04/30 11:11:35;;;;;;;7.80;5.35;;;14.60;75.40;;;;;;4987668;28;20100;-81
2022/04/30 11:14:06;;;;;;;6.28;4.63;;;14.70;73.80;;;;;;5001116;28;20057;-85
2022/04/30 11:16:34;;;;;;;10.93;4.55;;;14.80;73.80;;;;;;4998686;28;20041;-82
2022/04/30 11:19:07;;;;;;;7.00;4.72;;;14.80;74.20;;;;;;4969929;28;20042;-82
2022/04/30 11:21:35;;;;;;;8.20;4.72;;;14.80;74.10;;;;;;5033483;28;20054;-82
2022/04/30 11:24:02;;;;;;;7.47;4.93;;;14.90;73.90;;;;;;4984716;28;20061;-84
2022/04/30 11:26:29;;;;;;;7.43;4.25;;;14.80;72.90;;;;;;4969772;28;20482;-82
2022/04/30 11:28:55;;;;;;;6.45;4.32;;;14.90;73.40;;;;;;5010426;28;20049;-81
2022/04/30 11:31:21;;;;;;;8.27;4.78;;;14.90;73.90;;;;;;5013476;28;20492;-81
2022/04/30 11:33:47;;;;;;;7.72;4.57;;;15.10;73.10;;;;;;4988272;28;20057;-84
2022/04/30 11:36:13;;;;;;;7.40;5.10;;;15.10;72.20;;;;;;4974251;28;20043;-81
2022/04/30 11:38:39;;;;;;;8.05;4.35;;;15.10;72.60;;;;;;5006616;28;20046;-81
2022/04/30 11:41:06;;;;;;;8.20;4.20;;;15.20;71.60;;;;;;5006288;28;20104;-80
2022/04/30 11:43:32;;;;;;;8.38;4.40;;;15.20;71.30;;;;;;4974587;28;20153;-81
2022/04/30 11:46:00;;;;;;;8.70;4.15;;;15.40;71.30;;;;;;4958249;28;20525;-81
2022/04/30 11:48:27;;;;;;;4.85;4.32;;;15.50;69.80;;;;;;4974720;28;20077;-82
2022/04/30 11:50:54;;;;;;;6.95;4.35;;;15.40;69.90;;;;;;4974096;28;20050;-81
2022/04/30 11:53:20;;;;;;;6.47;3.85;;;15.20;70.50;;;;;;4942672;28;20065;-81
2022/04/30 11:55:46;;;;;;;7.90;4.10;;;15.10;70.90;;;;;;4958883;28;20054;-81
2022/04/30 11:58:12;;;;;;;10.65;3.85;;;15.00;70.40;;;;;;4958349;28;20085;-81
2022/04/30 12:00:38;;;;;;;7.03;3.97;;;15.00;70.40;;;;;;4962999;28;20046;-80
2022/04/30 12:03:04;;;;;;;7.07;4.05;;;14.90;68.10;;;;;;4977531;28;20061;-82
2022/04/30 12:05:31;;;;;;;4.30;3.60;;;14.80;68.10;;;;;;4961392;28;20054;-82
2022/04/30 12:08:00;;;;;;;6.55;3.72;;;14.80;68.30;;;;;;4976908;28;20128;-81
2022/04/30 12:10:26;;;;;;;7.70;3.80;;;14.70;68.60;;;;;;4993408;28;20062;-82
2022/04/30 12:12:54;;;;;;;7.53;3.90;;;14.50;68.80;;;;;;4989512;28;20065;-86
2022/04/30 12:15:25;;;;;;;6.28;4.03;;;14.20;68.70;;;;;;5013379;28;20168;-81
2022/04/30 12:26:58;;;;;;;6.97;3.38;;;14.00;68.70;;;;;;5013479;28;20064;-83
2022/04/30 12:29:27;;;;;;;5.75;3.60;;;14.00;69.40;;;;;;4997592;28;20126;-81
2022/04/30 12:31:53;;;;;;;6.20;3.70;;;14.00;70.00;;;;;;4980908;28;20132;-83
2022/04/30 12:34:27;;;;;;;5.32;3.80;;;14.10;71.00;;;;;;5013714;28;20052;-81
2022/04/30 12:36:58;;;;;;;6.82;4.03;;;14.20;70.90;;;;;;5013189;28;20053;-86
2022/04/30 12:39:25;;;;;;;6.72;4.50;;;14.30;71.20;;;;;;4980928;28;20112;-81
2022/04/30 12:41:57;;;;;;;7.78;4.38;;;14.30;71.00;;;;;;4980710;28;20057;-83
2022/04/30 12:44:24;;;;;;;8.07;4.53;;;14.30;71.20;;;;;;5013588;28;20054;-81
2022/04/30 12:46:50;;;;;;;6.22;3.88;;;14.30;71.60;;;;;;5013361;28;20065;-81
2022/04/30 12:49:17;;;;;;;8.40;5.68;;;14.30;72.30;;;;;;4980373;28;20042;-80
2022/04/30 12:51:44;;;;;;;6.97;5.60;;;14.30;71.80;;;;;;5013115;28;20052;-82
2022/04/30 12:54:12;;;;;;;9.07;6.20;;;14.20;69.80;;;;;;5012391;28;20058;-81
2022/04/30 12:56:43;;;;;;;6.35;4.13;;;14.20;70.50;;;;;;4980665;28;20409;-81
2022/04/30 12:59:09;;;;;;;5.13;4.00;;;14.10;69.60;;;;;;5012289;28;20088;-81
2022/04/30 13:01:37;;;;;;;5.50;4.05;;;14.00;69.60;;;;;;5013499;28;20144;-81
2022/04/30 13:04:03;;;;;;;6.05;4.25;;;14.10;70.40;;;;;;4980665;28;20045;-80
2022/04/30 13:06:30;;;;;;;5.45;4.20;;;14.10;70.40;;;;;;5012924;28;20050;-82
2022/04/30 13:14:28;;;;;;;7.25;4.70;;;14.00;70.90;;;;;;4999345;28;20096;-81
2022/04/30 13:16:54;;;;;;;6.35;4.32;;;14.10;71.10;;;;;;5012799;28;20403;-85
2022/04/30 13:19:20;;;;;;;9.73;5.15;;;14.10;70.40;;;;;;4964180;28;20080;-82
2022/04/30 13:21:49;;;;;;;6.65;4.13;;;14.20;70.20;;;;;;4980245;28;20733;-81
2022/04/30 13:24:15;;;;;;;6.85;4.25;;;14.10;69.70;;;;;;4995542;28;20124;-80
2022/04/30 13:26:42;;;;;;;7.32;4.00;;;14.10;69.90;;;;;;5012680;28;20568;-81
2022/04/30 13:29:11;;;;;;;5.80;3.63;;;14.10;70.10;;;;;;5012132;28;20092;-81
2022/04/30 13:31:41;;;;;;;4.88;3.75;;;14.10;69.00;;;;;;5012354;28;20140;-81